Time;durP1;ratioP1;P1;durP2;ratioP2;P2;SDS_P1;SDS_P2;PMS_P1;PMS_P2;Temp;Humidity;BMP_temperature;BMP_pressure;BME280_temperature;BME280_humidity;BME280_pressure;Samples;Min_cycle;Max_cycle;Signal;HPM_P1;HPM_P2
2021/11/07 00:00:12;;;;;;;8.43;3.70;;;;;9.50;101470.00;;;;10536462;28;20305;-78
2021/11/07 00:04:49;;;;;;;6.97;4.17;;;;;9.40;101461.00;;;;10545964;28;20208;-78
2021/11/07 00:15:13;;;;;;;8.23;4.80;;;;;9.30;101438.00;;;;10535640;28;20551;-78
2021/11/07 00:20:23;;;;;;;12.67;5.87;;;;;9.30;101446.00;;;;10535693;28;20205;-77
2021/11/07 00:41:08;;;;;;;9.80;6.20;;;;;9.20;101422.00;;;;10534825;28;20246;-78
2021/11/07 00:51:18;;;;;;;8.70;5.97;;;;;9.10;101431.00;;;;10551301;28;20215;-78
2021/11/07 01:01:33;;;;;;;6.73;5.57;;;;;9.00;101417.00;;;;10567578;28;20235;-78
2021/11/07 01:06:35;;;;;;;8.23;7.23;;;;;9.00;101414.00;;;;10534393;28;20253;-78
2021/11/07 01:11:38;;;;;;;10.63;6.93;;;;;9.00;101402.00;;;;10496231;28;20197;-78
2021/11/07 01:16:41;;;;;;;11.87;7.33;;;;;9.00;101417.00;;;;10523313;28;20196;-78
2021/11/07 01:21:45;;;;;;;9.03;7.70;;;;;9.10;101399.00;;;;10549774;28;20212;-78
2021/11/07 01:33:07;;;;;;;12.40;8.93;;;;;9.10;101404.00;;;;10507448;28;20765;-78
2021/11/07 01:38:49;;;;;;;12.17;8.73;;;;;9.10;101393.00;;;;10530125;28;20220;-78
2021/11/07 01:44:26;;;;;;;10.27;8.80;;;;;9.20;101376.00;;;;10494924;28;20199;-78
2021/11/07 01:50:02;;;;;;;15.40;9.33;;;;;9.20;101393.00;;;;10520238;28;20212;-78
2021/11/07 01:55:38;;;;;;;10.60;8.93;;;;;9.20;101391.00;;;;10529981;28;20200;-78
2021/11/07 02:01:15;;;;;;;10.80;8.80;;;;;9.20;101406.00;;;;10515619;28;20196;-78
2021/11/07 02:06:51;;;;;;;10.43;6.60;;;;;9.20;101414.00;;;;10548547;28;20778;-78
2021/11/07 02:12:27;;;;;;;12.63;9.77;;;;;9.20;101393.00;;;;10504652;28;20188;-78
2021/11/07 02:18:03;;;;;;;11.23;9.23;;;;;9.20;101401.00;;;;10532111;28;20188;-78
2021/11/07 02:23:39;;;;;;;10.70;9.30;;;;;9.30;101393.00;;;;10519929;28;20549;-78
2021/11/07 02:29:15;;;;;;;11.40;9.50;;;;;9.30;101374.00;;;;10489975;28;20192;-78
2021/11/07 02:34:51;;;;;;;15.10;9.83;;;;;9.30;101365.00;;;;10516262;28;20237;-78
2021/11/07 02:40:27;;;;;;;13.00;9.33;;;;;9.30;101359.00;;;;10531937;28;20200;-78
2021/11/07 02:46:03;;;;;;;14.83;9.43;;;;;9.30;101360.00;;;;10510130;28;20221;-78
2021/11/07 02:51:42;;;;;;;15.03;9.50;;;;;9.30;101340.00;;;;10534136;28;20189;-78
2021/11/07 02:57:22;;;;;;;11.17;9.07;;;;;9.30;101323.00;;;;10531765;28;20193;-78
2021/11/07 03:02:58;;;;;;;10.80;8.10;;;;;9.30;101318.00;;;;10519919;28;20236;-78
2021/11/07 03:08:36;;;;;;;9.83;7.97;;;;;9.40;101309.00;;;;10533668;28;20196;-78
2021/11/07 03:14:13;;;;;;;9.73;7.37;;;;;9.40;101317.00;;;;10582545;28;20272;-78
2021/11/07 03:19:50;;;;;;;11.13;8.23;;;;;9.40;101315.00;;;;10511363;28;20208;-78
2021/11/07 03:25:26;;;;;;;11.57;8.00;;;;;9.40;101307.00;;;;10513373;28;20201;-78
2021/11/07 03:31:09;;;;;;;10.10;8.50;;;;;9.40;101302.00;;;;10512741;28;20200;-78
2021/11/07 03:36:55;;;;;;;11.53;9.13;;;;;9.40;101319.00;;;;10542250;28;20655;-78
2021/11/07 03:42:33;;;;;;;11.87;9.60;;;;;9.40;101301.00;;;;10534764;28;20211;-78
2021/11/07 03:48:10;;;;;;;10.27;9.33;;;;;9.50;101278.00;;;;10512516;28;20225;-78
2021/11/07 03:53:46;;;;;;;10.97;9.83;;;;;9.50;101281.00;;;;10538824;28;20200;-78
2021/11/07 03:59:22;;;;;;;10.07;8.97;;;;;9.50;101280.00;;;;10524766;28;20208;-78
2021/11/07 04:04:59;;;;;;;10.07;8.93;;;;;9.50;101292.00;;;;10541447;28;20205;-78
2021/11/07 04:10:36;;;;;;;9.70;8.67;;;;;9.50;101285.00;;;;10510984;28;20682;-78
2021/11/07 04:16:13;;;;;;;9.87;8.80;;;;;9.60;101286.00;;;;10501775;28;20200;-78
2021/11/07 04:21:51;;;;;;;9.73;8.80;;;;;9.60;101264.00;;;;10514451;28;20201;-78
2021/11/07 04:27:27;;;;;;;9.67;8.67;;;;;9.60;101277.00;;;;10526568;28;20287;-78
2021/11/07 04:33:03;;;;;;;10.13;8.63;;;;;9.60;101279.00;;;;10526149;28;20199;-78
2021/11/07 04:38:39;;;;;;;11.07;8.70;;;;;9.70;101255.00;;;;10514016;28;20197;-78
2021/11/07 04:44:15;;;;;;;9.93;8.60;;;;;9.70;101235.00;;;;10518344;28;20208;-78
2021/11/07 04:49:53;;;;;;;10.63;9.53;;;;;9.60;101236.00;;;;10552053;28;20674;-78
2021/11/07 04:55:29;;;;;;;11.97;9.73;;;;;9.70;101220.00;;;;10525735;28;20196;-78
2021/11/07 05:01:05;;;;;;;14.07;11.20;;;;;9.80;101230.00;;;;10528010;28;20253;-78
2021/11/07 05:06:42;;;;;;;14.60;10.73;;;;;9.80;101230.00;;;;10517737;28;20828;-78
2021/11/07 05:12:18;;;;;;;12.60;10.87;;;;;9.90;101246.00;;;;10508593;28;20222;-78
2021/11/07 05:17:54;;;;;;;17.27;10.83;;;;;9.90;101278.00;;;;10505890;28;20200;-78
2021/11/07 05:23:30;;;;;;;15.53;11.83;;;;;10.00;101267.00;;;;10505395;28;20216;-78
2021/11/07 05:29:14;;;;;;;17.07;11.83;;;;;10.00;101244.00;;;;10523964;28;20195;-78
2021/11/07 05:34:50;;;;;;;13.83;11.13;;;;;10.10;101233.00;;;;10508909;28;20640;-78
2021/11/07 05:40:26;;;;;;;17.63;12.63;;;;;10.10;101252.00;;;;10506851;28;20184;-78
2021/11/07 05:46:02;;;;;;;17.27;12.57;;;;;10.10;101230.00;;;;10525205;28;20220;-78
2021/11/07 05:51:38;;;;;;;14.63;12.33;;;;;10.20;101226.00;;;;10498641;28;20685;-78
2021/11/07 05:57:14;;;;;;;16.93;12.10;;;;;10.20;101249.00;;;;10518469;28;20192;-78
2021/11/07 06:02:50;;;;;;;17.93;13.70;;;;;10.30;101267.00;;;;10503392;28;20197;-78
2021/11/07 06:08:26;;;;;;;16.27;13.87;;;;;10.20;101274.00;;;;10476577;28;20211;-78
2021/11/07 06:14:02;;;;;;;19.90;15.03;;;;;10.20;101265.00;;;;10529933;28;20197;-78
2021/11/07 06:19:38;;;;;;;20.20;13.10;;;;;10.20;101270.00;;;;10514247;28;20196;-78
2021/11/07 06:25:14;;;;;;;18.63;13.80;;;;;10.20;101291.00;;;;10505277;28;20208;-78
2021/11/07 06:30:52;;;;;;;16.77;14.23;;;;;10.20;101290.00;;;;10502571;28;20196;-78
2021/11/07 06:36:31;;;;;;;16.80;12.67;;;;;10.10;101281.00;;;;10530460;28;20189;-78
2021/11/07 06:42:07;;;;;;;16.17;12.17;;;;;10.20;101290.00;;;;10515864;28;20919;-78
2021/11/07 06:47:43;;;;;;;19.03;13.93;;;;;10.20;101283.00;;;;10515024;28;20217;-79
2021/11/07 06:53:19;;;;;;;17.27;13.30;;;;;10.20;101272.00;;;;10487544;28;20189;-78
2021/11/07 06:58:57;;;;;;;16.87;12.77;;;;;10.30;101283.00;;;;10501569;28;20201;-78
2021/11/07 07:04:32;;;;;;;21.07;12.30;;;;;10.30;101276.00;;;;10494915;28;20217;-78
2021/11/07 07:10:21;;;;;;;23.27;12.00;;;;;10.30;101293.00;;;;10518045;28;20200;-78
2021/11/07 07:16:21;;;;;;;17.20;11.43;;;;;10.30;101308.00;;;;10517399;28;20224;-78
2021/11/07 07:28:26;;;;;;;16.57;12.77;;;;;10.40;101269.00;;;;10516257;28;20219;-78
2021/11/07 07:39:37;;;;;;;18.17;12.33;;;;;10.80;101288.00;;;;10528622;28;20206;-78
2021/11/07 07:45:14;;;;;;;19.83;13.00;;;;;11.00;101298.00;;;;10551876;28;20260;-78
2021/11/07 07:50:50;;;;;;;18.27;12.57;;;;;11.30;101289.00;;;;10550735;28;20227;-78
2021/11/07 07:56:26;;;;;;;16.17;11.93;;;;;11.50;101309.00;;;;10535578;28;20176;-78
2021/11/07 08:02:02;;;;;;;23.30;11.13;;;;;11.60;101308.00;;;;10524227;28;20213;-79
2021/11/07 08:07:38;;;;;;;17.90;11.17;;;;;11.50;101320.00;;;;10532099;28;20212;-78
2021/11/07 08:13:14;;;;;;;12.67;9.40;;;;;11.40;101308.00;;;;10523681;28;20192;-78
2021/11/07 08:18:50;;;;;;;16.80;9.20;;;;;11.40;101308.00;;;;10508648;28;20193;-78
2021/11/07 08:24:26;;;;;;;15.10;8.23;;;;;11.30;101313.00;;;;10508094;28;20201;-78
2021/11/07 08:30:03;;;;;;;15.97;8.03;;;;;11.20;101335.00;;;;10492421;28;20201;-78
2021/11/07 08:35:42;;;;;;;16.37;6.20;;;;;11.20;101323.00;;;;10490264;28;20193;-78
2021/11/07 08:41:19;;;;;;;12.93;4.67;;;;;11.50;101319.00;;;;10514554;28;20200;-78
2021/11/07 09:04:57;;;;;;;10.23;2.93;;;;;12.50;101332.00;;;;10528260;28;20224;-78
2021/11/07 09:10:35;;;;;;;15.57;3.70;;;;;12.40;101332.00;;;;10497549;28;20207;-78
2021/11/07 09:16:12;;;;;;;10.30;2.80;;;;;12.30;101348.00;;;;10508291;28;20191;-78
2021/11/07 09:21:51;;;;;;;15.00;2.60;;;;;12.10;101338.00;;;;10524717;28;20212;-78
2021/11/07 09:38:57;;;;;;;16.30;2.80;;;;;12.50;101339.00;;;;10497070;28;20663;-78
2021/11/07 09:44:38;;;;;;;12.07;3.20;;;;;12.60;101342.00;;;;10488798;28;20223;-78
2021/11/07 09:50:29;;;;;;;11.73;2.97;;;;;12.80;101333.00;;;;10514929;28;20613;-78
2021/11/07 09:56:07;;;;;;;10.60;2.63;;;;;13.10;101358.00;;;;10528868;28;20196;-78
2021/11/07 10:01:44;;;;;;;9.90;2.07;;;;;13.20;101352.00;;;;10512778;28;20211;-78
2021/11/07 10:07:35;;;;;;;12.33;3.10;;;;;13.10;101361.00;;;;10547694;28;20227;-78
2021/11/07 10:13:26;;;;;;;11.00;2.83;;;;;13.20;101336.00;;;;10489514;28;20219;-78
2021/11/07 10:19:21;;;;;;;12.27;2.97;;;;;13.40;101338.00;;;;10524009;28;20188;-78
2021/11/07 10:25:08;;;;;;;16.00;2.60;;;;;14.20;101341.00;;;;10529644;28;20205;-78
2021/11/07 10:30:48;;;;;;;16.07;3.30;;;;;14.90;101333.00;;;;10500573;28;20196;-78
2021/11/07 10:53:36;;;;;;;10.87;3.20;;;;;13.40;101343.00;;;;10517274;28;20199;-78
2021/11/07 10:59:21;;;;;;;12.30;2.70;;;;;13.20;101352.00;;;;10521837;28;20189;-78
2021/11/07 11:05:25;;;;;;;14.80;2.67;;;;;13.00;101357.00;;;;10509001;28;20221;-77
2021/11/07 11:17:03;;;;;;;11.67;2.37;;;;;13.20;101352.00;;;;10531615;28;20638;-77
2021/11/07 11:28:34;;;;;;;13.77;2.60;;;;;13.00;101326.00;;;;10513005;28;20196;-78
2021/11/07 11:34:13;;;;;;;11.23;3.57;;;;;13.20;101331.00;;;;10492803;28;20180;-78
2021/11/07 11:45:46;;;;;;;11.43;2.40;;;;;12.70;101346.00;;;;10548067;28;20201;-77
2021/11/07 11:57:45;;;;;;;17.13;2.60;;;;;13.10;101344.00;;;;10523554;28;20189;-78
2021/11/07 12:09:42;;;;;;;13.23;3.57;;;;;14.30;101334.00;;;;10514293;28;20201;-78
2021/11/07 12:21:02;;;;;;;9.87;3.10;;;;;14.00;101342.00;;;;10519862;28;20184;-78
2021/11/07 12:26:38;;;;;;;14.57;3.53;;;;;14.10;101330.00;;;;10524420;28;20750;-78
2021/11/07 12:32:17;;;;;;;11.97;3.83;;;;;14.00;101327.00;;;;10507494;28;20192;-78
2021/11/07 12:44:03;;;;;;;13.80;2.93;;;;;13.70;101342.00;;;;10512658;28;20281;-78
2021/11/07 12:49:40;;;;;;;13.20;3.20;;;;;13.00;101355.00;;;;10507769;28;20230;-77
2021/11/07 12:55:33;;;;;;;7.03;2.27;;;;;12.90;101328.00;;;;10545898;28;20655;-78
2021/11/07 13:01:09;;;;;;;15.93;3.53;;;;;13.70;101334.00;;;;10529792;28;20184;-78
2021/11/07 13:06:46;;;;;;;11.17;2.93;;;;;14.00;101331.00;;;;10530209;28;20215;-78
2021/11/07 13:30:01;;;;;;;14.00;3.37;;;;;13.20;101336.00;;;;10497335;28;20572;-77
2021/11/07 13:35:36;;;;;;;14.97;3.30;;;;;12.70;101352.00;;;;10516449;28;20192;-78
2021/11/07 13:41:22;;;;;;;20.77;4.13;;;;;12.80;101351.00;;;;10503432;28;20203;-77
2021/11/07 13:47:05;;;;;;;13.17;4.07;;;;;13.50;101333.00;;;;10500154;28;20215;-77
2021/11/07 13:52:42;;;;;;;14.27;3.83;;;;;13.70;101325.00;;;;10486582;28;20204;-77
2021/11/07 13:58:22;;;;;;;20.93;4.30;;;;;13.50;101329.00;;;;10504314;28;20205;-77
2021/11/07 14:04:02;;;;;;;15.03;3.83;;;;;13.60;101338.00;;;;10518425;28;20561;-78
2021/11/07 14:09:37;;;;;;;18.40;4.03;;;;;13.50;101319.00;;;;10498781;28;20402;-78
2021/11/07 14:15:14;;;;;;;12.30;3.03;;;;;13.00;101339.00;;;;10528154;28;20188;-78
2021/11/07 14:21:08;;;;;;;18.77;3.73;;;;;12.30;101339.00;;;;10486885;28;20288;-77
2021/11/07 14:26:49;;;;;;;18.67;3.90;;;;;12.10;101357.00;;;;10533668;28;20212;-77
2021/11/07 14:32:31;;;;;;;13.40;3.67;;;;;12.00;101363.00;;;;10508105;28;20196;-77
2021/11/07 14:38:12;;;;;;;6.63;2.37;;;;;12.00;101341.00;;;;10503426;28;20201;-77
2021/11/07 14:44:11;;;;;;;12.97;3.43;;;;;11.90;101350.00;;;;10504954;28;20210;-78
2021/11/07 14:49:59;;;;;;;13.43;2.67;;;;;11.60;101360.00;;;;10520994;28;20216;-78
2021/11/07 14:55:42;;;;;;;14.27;3.77;;;;;11.30;101364.00;;;;10525248;28;20196;-77
2021/11/07 15:07:09;;;;;;;12.27;3.07;;;;;11.10;101372.00;;;;10549792;28;20586;-77
2021/11/07 15:24:24;;;;;;;18.80;4.40;;;;;11.00;101381.00;;;;10518159;28;20207;-77
2021/11/07 15:30:01;;;;;;;16.57;4.33;;;;;10.90;101374.00;;;;10526226;28;20200;-77
2021/11/07 15:35:36;;;;;;;21.97;3.80;;;;;10.70;101363.00;;;;10518404;28;20193;-77
2021/11/07 15:41:14;;;;;;;18.03;3.20;;;;;10.50;101372.00;;;;10506460;28;20193;-78
2021/11/07 15:46:56;;;;;;;17.97;3.80;;;;;10.40;101385.00;;;;10508919;28;20224;-78
2021/11/07 15:53:21;;;;;;;20.13;3.77;;;;;10.30;101372.00;;;;10525708;28;20196;-78
2021/11/07 16:11:13;;;;;;;19.70;4.57;;;;;9.80;101367.00;;;;10535638;28;20648;-79
2021/11/07 16:21:54;;;;;;;19.37;4.20;;;;;9.60;101402.00;;;;10507185;28;20185;-79
2021/11/07 16:27:30;;;;;;;16.00;4.00;;;;;9.60;101378.00;;;;10521658;28;20208;-79
2021/11/07 16:33:10;;;;;;;27.90;4.13;;;;;9.60;101383.00;;;;10512947;28;20235;-77
2021/11/07 16:44:25;;;;;;;21.47;4.83;;;;;9.70;101397.00;;;;10529159;28;20211;-79
2021/11/07 16:50:02;;;;;;;22.13;4.07;;;;;9.80;101402.00;;;;10531770;28;20233;-79
2021/11/07 16:55:53;;;;;;;18.60;4.97;;;;;9.80;101415.00;;;;10528744;28;20188;-76
2021/11/07 17:07:09;;;;;;;16.07;3.50;;;;;9.80;101422.00;;;;10524818;28;20224;-79
2021/11/07 17:12:52;;;;;;;19.77;4.20;;;;;9.70;101423.00;;;;10501693;28;20193;-77
2021/11/07 17:18:31;;;;;;;21.17;4.17;;;;;9.60;101414.00;;;;10503030;28;20192;-80
2021/11/07 17:29:55;;;;;;;23.47;5.03;;;;;9.60;101426.00;;;;10504507;28;20197;-79
2021/11/07 17:35:42;;;;;;;25.00;5.33;;;;;9.70;101437.00;;;;10517276;28;20280;-76
2021/11/07 17:41:37;;;;;;;22.90;5.43;;;;;9.70;101431.00;;;;10495131;28;20231;-79
2021/11/07 17:59:01;;;;;;;21.90;5.00;;;;;9.60;101444.00;;;;10516640;28;20200;-77
2021/11/07 18:04:38;;;;;;;16.43;3.80;;;;;9.60;101437.00;;;;10506327;28;20219;-77
2021/11/07 18:10:15;;;;;;;20.73;4.80;;;;;9.60;101442.00;;;;10542736;28;20200;-77
2021/11/07 18:15:50;;;;;;;26.47;5.47;;;;;9.60;101438.00;;;;10525067;28;20189;-77
2021/11/07 18:21:33;;;;;;;22.67;4.67;;;;;9.60;101439.00;;;;10509670;28;20192;-77
2021/11/07 18:27:10;;;;;;;27.10;5.03;;;;;9.60;101437.00;;;;10516986;28;20203;-79
2021/11/07 18:32:45;;;;;;;21.73;5.00;;;;;9.60;101446.00;;;;10502542;28;20211;-79
2021/11/07 18:38:22;;;;;;;20.47;4.50;;;;;9.60;101456.00;;;;10483649;28;20200;-80
2021/11/07 18:43:58;;;;;;;24.73;4.60;;;;;9.60;101446.00;;;;10527991;28;20212;-77
2021/11/07 18:49:34;;;;;;;20.10;3.97;;;;;9.60;101438.00;;;;10536861;28;20324;-79
